sensor_id;sensor_type;location;lat;lon;timestamp;P1;durP1;ratioP1;P2;durP2;ratioP2
21233;SDS011;10774;42.178;26.578;2023-01-15T00:00:48;24.50;;;16.33;;
21233;SDS011;10774;42.178;26.578;2023-01-15T00:03:14;22.80;;;15.15;;
21233;SDS011;10774;42.178;26.578;2023-01-15T00:05:39;22.98;;;15.07;;
21233;SDS011;10774;42.178;26.578;2023-01-15T00:08:04;25.30;;;14.60;;
21233;SDS011;10774;42.178;26.578;2023-01-15T00:10:30;28.45;;;16.95;;
21233;SDS011;10774;42.178;26.578;2023-01-15T00:12:56;24.60;;;15.88;;
21233;SDS011;10774;42.178;26.578;2023-01-15T00:15:21;24.33;;;16.35;;
21233;SDS011;10774;42.178;26.578;2023-01-15T00:17:47;24.98;;;17.15;;
21233;SDS011;10774;42.178;26.578;2023-01-15T00:20:12;27.85;;;18.05;;
21233;SDS011;10774;42.178;26.578;2023-01-15T00:22:37;24.80;;;17.92;;
21233;SDS011;10774;42.178;26.578;2023-01-15T00:25:05;23.92;;;17.33;;
21233;SDS011;10774;42.178;26.578;2023-01-15T00:27:49;22.55;;;15.88;;
21233;SDS011;10774;42.178;26.578;2023-01-15T00:30:15;23.25;;;15.25;;
21233;SDS011;10774;42.178;26.578;2023-01-15T00:32:41;20.83;;;13.00;;
21233;SDS011;10774;42.178;26.578;2023-01-15T00:35:15;20.58;;;12.93;;
21233;SDS011;10774;42.178;26.578;2023-01-15T00:37:42;20.88;;;13.60;;
21233;SDS011;10774;42.178;26.578;2023-01-15T00:40:08;17.63;;;12.13;;
21233;SDS011;10774;42.178;26.578;2023-01-15T00:42:34;17.92;;;11.80;;
21233;SDS011;10774;42.178;26.578;2023-01-15T00:44:59;15.43;;;10.38;;
21233;SDS011;10774;42.178;26.578;2023-01-15T00:47:32;13.77;;;10.25;;
21233;SDS011;10774;42.178;26.578;2023-01-15T00:49:57;15.73;;;10.73;;
21233;SDS011;10774;42.178;26.578;2023-01-15T00:52:23;15.23;;;11.15;;
21233;SDS011;10774;42.178;26.578;2023-01-15T00:54:48;16.25;;;11.35;;
21233;SDS011;10774;42.178;26.578;2023-01-15T00:57:13;16.02;;;11.65;;
21233;SDS011;10774;42.178;26.578;2023-01-15T00:59:39;17.33;;;10.65;;
21233;SDS011;10774;42.178;26.578;2023-01-15T01:02:04;15.13;;;10.55;;
21233;SDS011;10774;42.178;26.578;2023-01-15T01:04:30;17.15;;;10.95;;
21233;SDS011;10774;42.178;26.578;2023-01-15T01:06:56;19.92;;;12.10;;
21233;SDS011;10774;42.178;26.578;2023-01-15T01:09:21;17.02;;;11.27;;
21233;SDS011;10774;42.178;26.578;2023-01-15T01:11:48;17.00;;;11.70;;
21233;SDS011;10774;42.178;26.578;2023-01-15T01:14:14;20.83;;;12.85;;
21233;SDS011;10774;42.178;26.578;2023-01-15T01:16:40;19.98;;;13.35;;
21233;SDS011;10774;42.178;26.578;2023-01-15T01:21:32;20.58;;;13.73;;
21233;SDS011;10774;42.178;26.578;2023-01-15T01:23:58;24.08;;;15.48;;
21233;SDS011;10774;42.178;26.578;2023-01-15T01:26:25;23.10;;;15.73;;
21233;SDS011;10774;42.178;26.578;2023-01-15T01:28:51;25.73;;;15.95;;
21233;SDS011;10774;42.178;26.578;2023-01-15T01:31:18;17.67;;;11.68;;
21233;SDS011;10774;42.178;26.578;2023-01-15T01:33:43;19.40;;;13.38;;
21233;SDS011;10774;42.178;26.578;2023-01-15T01:36:09;18.15;;;11.50;;
21233;SDS011;10774;42.178;26.578;2023-01-15T01:38:34;19.45;;;12.30;;
21233;SDS011;10774;42.178;26.578;2023-01-15T01:41:00;16.08;;;11.63;;
21233;SDS011;10774;42.178;26.578;2023-01-15T01:43:26;14.00;;;10.35;;
21233;SDS011;10774;42.178;26.578;2023-01-15T01:45:53;14.30;;;9.88;;
21233;SDS011;10774;42.178;26.578;2023-01-15T01:48:27;13.23;;;9.20;;
21233;SDS011;10774;42.178;26.578;2023-01-15T01:50:55;16.67;;;9.00;;
21233;SDS011;10774;42.178;26.578;2023-01-15T01:53:26;11.50;;;8.55;;
21233;SDS011;10774;42.178;26.578;2023-01-15T01:55:53;12.18;;;8.65;;
21233;SDS011;10774;42.178;26.578;2023-01-15T01:58:20;12.77;;;7.75;;
21233;SDS011;10774;42.178;26.578;2023-01-15T02:00:47;11.35;;;8.55;;
21233;SDS011;10774;42.178;26.578;2023-01-15T02:03:15;13.52;;;8.98;;
21233;SDS011;10774;42.178;26.578;2023-01-15T02:05:48;15.15;;;9.48;;
21233;SDS011;10774;42.178;26.578;2023-01-15T02:08:17;13.63;;;9.23;;
21233;SDS011;10774;42.178;26.578;2023-01-15T02:10:42;13.00;;;8.45;;
21233;SDS011;10774;42.178;26.578;2023-01-15T02:13:13;13.32;;;8.55;;
21233;SDS011;10774;42.178;26.578;2023-01-15T02:18:37;11.95;;;8.48;;
21233;SDS011;10774;42.178;26.578;2023-01-15T02:26:54;9.90;;;7.25;;
21233;SDS011;10774;42.178;26.578;2023-01-15T02:29:31;9.68;;;7.18;;
21233;SDS011;10774;42.178;26.578;2023-01-15T02:32:06;11.60;;;8.32;;
21233;SDS011;10774;42.178;26.578;2023-01-15T02:34:35;12.80;;;10.05;;
21233;SDS011;10774;42.178;26.578;2023-01-15T02:37:09;11.13;;;8.57;;
21233;SDS011;10774;42.178;26.578;2023-01-15T02:39:40;13.25;;;9.40;;
21233;SDS011;10774;42.178;26.578;2023-01-15T02:42:08;10.95;;;8.55;;
21233;SDS011;10774;42.178;26.578;2023-01-15T02:44:37;14.00;;;7.68;;
21233;SDS011;10774;42.178;26.578;2023-01-15T02:47:06;8.52;;;6.53;;
21233;SDS011;10774;42.178;26.578;2023-01-15T02:49:33;7.45;;;5.72;;
21233;SDS011;10774;42.178;26.578;2023-01-15T02:52:03;6.30;;;5.32;;
21233;SDS011;10774;42.178;26.578;2023-01-15T02:54:31;7.70;;;6.40;;
21233;SDS011;10774;42.178;26.578;2023-01-15T02:57:03;11.43;;;7.93;;
21233;SDS011;10774;42.178;26.578;2023-01-15T02:59:31;11.90;;;8.13;;
21233;SDS011;10774;42.178;26.578;2023-01-15T03:02:02;10.38;;;7.68;;
21233;SDS011;10774;42.178;26.578;2023-01-15T03:04:31;12.00;;;8.95;;
21233;SDS011;10774;42.178;26.578;2023-01-15T03:06:59;11.77;;;8.68;;
21233;SDS011;10774;42.178;26.578;2023-01-15T03:09:30;13.52;;;9.13;;
21233;SDS011;10774;42.178;26.578;2023-01-15T03:12:01;12.50;;;9.23;;
21233;SDS011;10774;42.178;26.578;2023-01-15T03:17:28;17.25;;;11.00;;
21233;SDS011;10774;42.178;26.578;2023-01-15T03:20:04;17.42;;;12.40;;
21233;SDS011;10774;42.178;26.578;2023-01-15T03:22:34;16.60;;;11.43;;
21233;SDS011;10774;42.178;26.578;2023-01-15T03:25:04;13.40;;;9.70;;
21233;SDS011;10774;42.178;26.578;2023-01-15T03:27:36;16.00;;;11.45;;
21233;SDS011;10774;42.178;26.578;2023-01-15T03:30:05;17.40;;;13.45;;
21233;SDS011;10774;42.178;26.578;2023-01-15T03:32:39;16.52;;;12.35;;
21233;SDS011;10774;42.178;26.578;2023-01-15T03:35:38;15.43;;;11.43;;
21233;SDS011;10774;42.178;26.578;2023-01-15T03:38:12;13.82;;;9.35;;
21233;SDS011;10774;42.178;26.578;2023-01-15T03:40:52;14.50;;;9.75;;
21233;SDS011;10774;42.178;26.578;2023-01-15T03:43:30;13.38;;;9.45;;
21233;SDS011;10774;42.178;26.578;2023-01-15T03:46:06;13.10;;;8.80;;
21233;SDS011;10774;42.178;26.578;2023-01-15T03:48:42;16.33;;;9.02;;
21233;SDS011;10774;42.178;26.578;2023-01-15T03:51:27;11.07;;;8.32;;
21233;SDS011;10774;42.178;26.578;2023-01-15T03:54:05;12.93;;;9.93;;
21233;SDS011;10774;42.178;26.578;2023-01-15T03:59:22;13.38;;;8.93;;
21233;SDS011;10774;42.178;26.578;2023-01-15T04:01:57;52.72;;;39.20;;
21233;SDS011;10774;42.178;26.578;2023-01-15T04:04:25;240.40;;;177.00;;
21233;SDS011;10774;42.178;26.578;2023-01-15T04:06:51;20.02;;;15.20;;
21233;SDS011;10774;42.178;26.578;2023-01-15T04:09:18;14.65;;;10.23;;
21233;SDS011;10774;42.178;26.578;2023-01-15T04:11:44;15.25;;;10.93;;
21233;SDS011;10774;42.178;26.578;2023-01-15T04:14:11;14.05;;;9.75;;
21233;SDS011;10774;42.178;26.578;2023-01-15T04:16:38;14.77;;;10.15;;
21233;SDS011;10774;42.178;26.578;2023-01-15T04:19:04;18.25;;;12.32;;
21233;SDS011;10774;42.178;26.578;2023-01-15T04:21:29;15.85;;;11.70;;
21233;SDS011;10774;42.178;26.578;2023-01-15T04:23:55;14.73;;;10.48;;
21233;SDS011;10774;42.178;26.578;2023-01-15T04:26:20;18.88;;;13.02;;
21233;SDS011;10774;42.178;26.578;2023-01-15T04:28:46;19.02;;;13.45;;
21233;SDS011;10774;42.178;26.578;2023-01-15T04:31:11;16.88;;;12.10;;
21233;SDS011;10774;42.178;26.578;2023-01-15T04:33:37;20.38;;;13.73;;
21233;SDS011;10774;42.178;26.578;2023-01-15T04:36:06;19.45;;;12.77;;
21233;SDS011;10774;42.178;26.578;2023-01-15T04:38:33;21.70;;;14.30;;
21233;SDS011;10774;42.178;26.578;2023-01-15T04:41:01;49.13;;;26.50;;
21233;SDS011;10774;42.178;26.578;2023-01-15T04:43:46;68.25;;;34.60;;
21233;SDS011;10774;42.178;26.578;2023-01-15T04:46:30;78.90;;;36.53;;
21233;SDS011;10774;42.178;26.578;2023-01-15T04:48:56;151.00;;;60.70;;
21233;SDS011;10774;42.178;26.578;2023-01-15T04:51:21;124.10;;;44.58;;
21233;SDS011;10774;42.178;26.578;2023-01-15T04:53:46;158.27;;;67.47;;
21233;SDS011;10774;42.178;26.578;2023-01-15T04:56:12;89.53;;;43.85;;
21233;SDS011;10774;42.178;26.578;2023-01-15T04:58:37;74.88;;;42.15;;
21233;SDS011;10774;42.178;26.578;2023-01-15T05:01:08;50.60;;;32.42;;
21233;SDS011;10774;42.178;26.578;2023-01-15T05:03:35;27.85;;;18.58;;
21233;SDS011;10774;42.178;26.578;2023-01-15T05:06:01;20.85;;;14.05;;
21233;SDS011;10774;42.178;26.578;2023-01-15T05:08:27;24.25;;;16.10;;
21233;SDS011;10774;42.178;26.578;2023-01-15T05:10:53;26.63;;;17.85;;
21233;SDS011;10774;42.178;26.578;2023-01-15T05:13:19;33.85;;;21.70;;
21233;SDS011;10774;42.178;26.578;2023-01-15T05:15:44;36.35;;;21.25;;
21233;SDS011;10774;42.178;26.578;2023-01-15T05:18:11;31.55;;;19.25;;
21233;SDS011;10774;42.178;26.578;2023-01-15T05:20:40;25.90;;;17.42;;
21233;SDS011;10774;42.178;26.578;2023-01-15T05:23:06;25.00;;;16.75;;
21233;SDS011;10774;42.178;26.578;2023-01-15T05:25:32;23.30;;;15.73;;
21233;SDS011;10774;42.178;26.578;2023-01-15T05:27:57;20.30;;;14.23;;
21233;SDS011;10774;42.178;26.578;2023-01-15T05:30:23;24.33;;;16.67;;
21233;SDS011;10774;42.178;26.578;2023-01-15T05:32:48;24.85;;;17.63;;
21233;SDS011;10774;42.178;26.578;2023-01-15T05:35:13;27.20;;;19.10;;
21233;SDS011;10774;42.178;26.578;2023-01-15T05:37:39;25.27;;;19.33;;
21233;SDS011;10774;42.178;26.578;2023-01-15T05:40:04;27.83;;;20.13;;
21233;SDS011;10774;42.178;26.578;2023-01-15T05:42:30;27.33;;;20.27;;
21233;SDS011;10774;42.178;26.578;2023-01-15T05:44:56;26.75;;;18.75;;
21233;SDS011;10774;42.178;26.578;2023-01-15T05:47:21;27.75;;;19.80;;
21233;SDS011;10774;42.178;26.578;2023-01-15T05:49:46;31.08;;;20.42;;
21233;SDS011;10774;42.178;26.578;2023-01-15T05:52:14;26.45;;;18.95;;
21233;SDS011;10774;42.178;26.578;2023-01-15T05:54:40;24.83;;;17.48;;
21233;SDS011;10774;42.178;26.578;2023-01-15T05:57:05;26.40;;;18.05;;
21233;SDS011;10774;42.178;26.578;2023-01-15T05:59:34;26.40;;;17.65;;
21233;SDS011;10774;42.178;26.578;2023-01-15T06:01:59;25.27;;;18.50;;
21233;SDS011;10774;42.178;26.578;2023-01-15T06:04:25;26.75;;;19.63;;
21233;SDS011;10774;42.178;26.578;2023-01-15T06:06:51;25.05;;;18.13;;
21233;SDS011;10774;42.178;26.578;2023-01-15T06:09:18;30.90;;;21.55;;
21233;SDS011;10774;42.178;26.578;2023-01-15T06:11:44;29.20;;;19.08;;
21233;SDS011;10774;42.178;26.578;2023-01-15T06:14:11;23.70;;;16.75;;
21233;SDS011;10774;42.178;26.578;2023-01-15T06:16:36;20.10;;;14.48;;
21233;SDS011;10774;42.178;26.578;2023-01-15T06:19:04;24.27;;;15.85;;
21233;SDS011;10774;42.178;26.578;2023-01-15T06:21:30;29.73;;;21.50;;
21233;SDS011;10774;42.178;26.578;2023-01-15T06:23:57;31.42;;;22.70;;
21233;SDS011;10774;42.178;26.578;2023-01-15T06:26:23;30.65;;;21.67;;
21233;SDS011;10774;42.178;26.578;2023-01-15T06:28:49;67.97;;;45.60;;
21233;SDS011;10774;42.178;26.578;2023-01-15T06:31:16;80.85;;;54.10;;
21233;SDS011;10774;42.178;26.578;2023-01-15T06:33:43;83.53;;;53.20;;
21233;SDS011;10774;42.178;26.578;2023-01-15T06:36:13;65.03;;;39.20;;
21233;SDS011;10774;42.178;26.578;2023-01-15T06:38:40;50.72;;;32.53;;
21233;SDS011;10774;42.178;26.578;2023-01-15T06:41:09;45.00;;;33.70;;
21233;SDS011;10774;42.178;26.578;2023-01-15T06:43:56;36.28;;;25.95;;
21233;SDS011;10774;42.178;26.578;2023-01-15T06:46:44;39.33;;;26.58;;
21233;SDS011;10774;42.178;26.578;2023-01-15T06:49:30;45.17;;;29.70;;
21233;SDS011;10774;42.178;26.578;2023-01-15T06:51:56;38.88;;;26.73;;
21233;SDS011;10774;42.178;26.578;2023-01-15T06:54:21;35.05;;;22.60;;
21233;SDS011;10774;42.178;26.578;2023-01-15T06:56:47;40.97;;;24.45;;
21233;SDS011;10774;42.178;26.578;2023-01-15T06:59:12;48.40;;;24.85;;
21233;SDS011;10774;42.178;26.578;2023-01-15T07:01:37;50.42;;;30.48;;
21233;SDS011;10774;42.178;26.578;2023-01-15T07:04:03;46.33;;;28.95;;
21233;SDS011;10774;42.178;26.578;2023-01-15T07:06:28;43.70;;;28.52;;
21233;SDS011;10774;42.178;26.578;2023-01-15T07:08:54;41.08;;;27.25;;
21233;SDS011;10774;42.178;26.578;2023-01-15T07:11:19;34.42;;;23.17;;
21233;SDS011;10774;42.178;26.578;2023-01-15T07:13:45;25.40;;;19.10;;
21233;SDS011;10774;42.178;26.578;2023-01-15T07:16:10;30.65;;;22.25;;
21233;SDS011;10774;42.178;26.578;2023-01-15T07:18:51;31.08;;;21.75;;
21233;SDS011;10774;42.178;26.578;2023-01-15T07:21:18;36.33;;;23.70;;
21233;SDS011;10774;42.178;26.578;2023-01-15T07:23:43;39.88;;;26.13;;
21233;SDS011;10774;42.178;26.578;2023-01-15T07:26:08;45.63;;;26.83;;
21233;SDS011;10774;42.178;26.578;2023-01-15T07:28:34;47.70;;;29.98;;
21233;SDS011;10774;42.178;26.578;2023-01-15T07:30:59;44.03;;;29.58;;
21233;SDS011;10774;42.178;26.578;2023-01-15T07:33:25;39.92;;;27.73;;
21233;SDS011;10774;42.178;26.578;2023-01-15T07:35:50;29.67;;;20.88;;
21233;SDS011;10774;42.178;26.578;2023-01-15T07:38:15;31.35;;;19.98;;
21233;SDS011;10774;42.178;26.578;2023-01-15T07:40:41;25.63;;;17.75;;
21233;SDS011;10774;42.178;26.578;2023-01-15T07:43:07;36.10;;;23.45;;
21233;SDS011;10774;42.178;26.578;2023-01-15T07:45:51;67.28;;;27.75;;
21233;SDS011;10774;42.178;26.578;2023-01-15T07:48:35;56.50;;;23.98;;
21233;SDS011;10774;42.178;26.578;2023-01-15T07:51:19;37.13;;;22.67;;
21233;SDS011;10774;42.178;26.578;2023-01-15T07:53:44;32.15;;;20.65;;
21233;SDS011;10774;42.178;26.578;2023-01-15T07:56:10;21.15;;;13.43;;
21233;SDS011;10774;42.178;26.578;2023-01-15T07:58:35;14.73;;;9.88;;
21233;SDS011;10774;42.178;26.578;2023-01-15T08:01:01;16.13;;;9.75;;
21233;SDS011;10774;42.178;26.578;2023-01-15T08:03:26;16.50;;;11.05;;
21233;SDS011;10774;42.178;26.578;2023-01-15T08:05:52;13.18;;;9.43;;
21233;SDS011;10774;42.178;26.578;2023-01-15T08:08:17;15.63;;;11.05;;
21233;SDS011;10774;42.178;26.578;2023-01-15T08:10:43;19.02;;;13.40;;
21233;SDS011;10774;42.178;26.578;2023-01-15T08:13:27;26.58;;;18.27;;
21233;SDS011;10774;42.178;26.578;2023-01-15T08:16:11;26.42;;;18.00;;
21233;SDS011;10774;42.178;26.578;2023-01-15T08:18:37;35.42;;;20.77;;
21233;SDS011;10774;42.178;26.578;2023-01-15T08:21:03;29.65;;;19.55;;
21233;SDS011;10774;42.178;26.578;2023-01-15T08:23:29;25.85;;;18.35;;
21233;SDS011;10774;42.178;26.578;2023-01-15T08:25:57;27.27;;;17.95;;
21233;SDS011;10774;42.178;26.578;2023-01-15T08:28:24;26.52;;;19.63;;
21233;SDS011;10774;42.178;26.578;2023-01-15T08:30:49;21.10;;;15.93;;
21233;SDS011;10774;42.178;26.578;2023-01-15T08:33:14;18.45;;;13.88;;
21233;SDS011;10774;42.178;26.578;2023-01-15T08:35:40;15.95;;;12.23;;
21233;SDS011;10774;42.178;26.578;2023-01-15T08:38:05;15.25;;;10.93;;
21233;SDS011;10774;42.178;26.578;2023-01-15T08:40:31;16.70;;;12.65;;
21233;SDS011;10774;42.178;26.578;2023-01-15T08:42:57;18.85;;;12.43;;
21233;SDS011;10774;42.178;26.578;2023-01-15T08:45:23;13.80;;;10.65;;
21233;SDS011;10774;42.178;26.578;2023-01-15T08:47:48;13.55;;;9.95;;
21233;SDS011;10774;42.178;26.578;2023-01-15T08:50:14;16.33;;;11.55;;
21233;SDS011;10774;42.178;26.578;2023-01-15T08:52:39;17.45;;;12.05;;
21233;SDS011;10774;42.178;26.578;2023-01-15T08:55:05;13.35;;;9.98;;
21233;SDS011;10774;42.178;26.578;2023-01-15T08:57:31;21.10;;;14.57;;
21233;SDS011;10774;42.178;26.578;2023-01-15T08:59:57;17.70;;;12.65;;
21233;SDS011;10774;42.178;26.578;2023-01-15T09:02:22;23.80;;;15.30;;
21233;SDS011;10774;42.178;26.578;2023-01-15T09:04:47;24.33;;;16.00;;
21233;SDS011;10774;42.178;26.578;2023-01-15T09:07:13;23.77;;;14.60;;
21233;SDS011;10774;42.178;26.578;2023-01-15T09:09:38;25.80;;;18.65;;
21233;SDS011;10774;42.178;26.578;2023-01-15T09:12:04;23.85;;;16.08;;
21233;SDS011;10774;42.178;26.578;2023-01-15T09:14:30;20.08;;;14.18;;
21233;SDS011;10774;42.178;26.578;2023-01-15T09:16:55;15.57;;;11.50;;
21233;SDS011;10774;42.178;26.578;2023-01-15T09:19:21;28.73;;;21.35;;
21233;SDS011;10774;42.178;26.578;2023-01-15T09:21:47;9.48;;;7.43;;
21233;SDS011;10774;42.178;26.578;2023-01-15T09:24:12;16.42;;;11.88;;
21233;SDS011;10774;42.178;26.578;2023-01-15T09:26:38;16.10;;;11.18;;
21233;SDS011;10774;42.178;26.578;2023-01-15T09:29:04;15.48;;;11.10;;
21233;SDS011;10774;42.178;26.578;2023-01-15T09:31:31;25.00;;;17.17;;
21233;SDS011;10774;42.178;26.578;2023-01-15T09:33:57;18.35;;;11.88;;
21233;SDS011;10774;42.178;26.578;2023-01-15T09:36:27;12.25;;;8.65;;
21233;SDS011;10774;42.178;26.578;2023-01-15T09:38:57;18.95;;;14.48;;
21233;SDS011;10774;42.178;26.578;2023-01-15T09:41:24;16.35;;;11.63;;
21233;SDS011;10774;42.178;26.578;2023-01-15T09:52:13;20.02;;;13.75;;
21233;SDS011;10774;42.178;26.578;2023-01-15T09:57:22;18.95;;;11.13;;
21233;SDS011;10774;42.178;26.578;2023-01-15T09:59:49;19.05;;;13.30;;
21233;SDS011;10774;42.178;26.578;2023-01-15T10:04:48;18.60;;;11.80;;
21233;SDS011;10774;42.178;26.578;2023-01-15T10:09:59;18.85;;;12.18;;
21233;SDS011;10774;42.178;26.578;2023-01-15T10:12:28;14.35;;;11.05;;
21233;SDS011;10774;42.178;26.578;2023-01-15T10:18:19;42.17;;;25.38;;
21233;SDS011;10774;42.178;26.578;2023-01-15T10:28:58;57.50;;;35.58;;
21233;SDS011;10774;42.178;26.578;2023-01-15T10:31:39;61.92;;;36.80;;
21233;SDS011;10774;42.178;26.578;2023-01-15T10:39:13;22.02;;;15.27;;
21233;SDS011;10774;42.178;26.578;2023-01-15T10:47:14;21.83;;;14.65;;
21233;SDS011;10774;42.178;26.578;2023-01-15T10:49:43;24.95;;;18.05;;
21233;SDS011;10774;42.178;26.578;2023-01-15T10:54:50;19.90;;;12.95;;
21233;SDS011;10774;42.178;26.578;2023-01-15T11:00:14;14.80;;;11.07;;
21233;SDS011;10774;42.178;26.578;2023-01-15T11:02:55;28.45;;;20.30;;
21233;SDS011;10774;42.178;26.578;2023-01-15T11:05:23;16.90;;;12.40;;
21233;SDS011;10774;42.178;26.578;2023-01-15T11:07:51;18.67;;;13.32;;
21233;SDS011;10774;42.178;26.578;2023-01-15T11:10:19;17.60;;;14.32;;
21233;SDS011;10774;42.178;26.578;2023-01-15T11:12:56;13.35;;;10.07;;
21233;SDS011;10774;42.178;26.578;2023-01-15T11:15:49;10.05;;;7.20;;
21233;SDS011;10774;42.178;26.578;2023-01-15T11:18:34;10.75;;;8.25;;
21233;SDS011;10774;42.178;26.578;2023-01-15T11:21:24;20.83;;;14.65;;
21233;SDS011;10774;42.178;26.578;2023-01-15T11:23:51;18.23;;;11.90;;
21233;SDS011;10774;42.178;26.578;2023-01-15T11:26:37;24.65;;;18.35;;
21233;SDS011;10774;42.178;26.578;2023-01-15T11:29:11;20.98;;;15.45;;
21233;SDS011;10774;42.178;26.578;2023-01-15T11:31:39;36.13;;;21.67;;
21233;SDS011;10774;42.178;26.578;2023-01-15T11:34:13;35.75;;;16.98;;
21233;SDS011;10774;42.178;26.578;2023-01-15T11:36:45;18.35;;;11.90;;
21233;SDS011;10774;42.178;26.578;2023-01-15T11:39:26;15.77;;;10.75;;
21233;SDS011;10774;42.178;26.578;2023-01-15T11:42:04;13.43;;;10.38;;
21233;SDS011;10774;42.178;26.578;2023-01-15T11:44:58;16.50;;;12.32;;
21233;SDS011;10774;42.178;26.578;2023-01-15T11:47:51;17.27;;;10.15;;
21233;SDS011;10774;42.178;26.578;2023-01-15T11:50:47;18.33;;;11.43;;
21233;SDS011;10774;42.178;26.578;2023-01-15T11:53:16;16.48;;;11.80;;
21233;SDS011;10774;42.178;26.578;2023-01-15T11:55:51;19.80;;;13.70;;
21233;SDS011;10774;42.178;26.578;2023-01-15T11:58:23;15.13;;;10.38;;
21233;SDS011;10774;42.178;26.578;2023-01-15T12:00:52;15.88;;;12.50;;
21233;SDS011;10774;42.178;26.578;2023-01-15T12:03:20;17.90;;;13.73;;
21233;SDS011;10774;42.178;26.578;2023-01-15T12:05:56;13.98;;;10.18;;
21233;SDS011;10774;42.178;26.578;2023-01-15T12:11:20;29.35;;;19.67;;
21233;SDS011;10774;42.178;26.578;2023-01-15T12:17:11;11.60;;;7.97;;
21233;SDS011;10774;42.178;26.578;2023-01-15T12:22:07;14.02;;;10.77;;
21233;SDS011;10774;42.178;26.578;2023-01-15T12:33:13;11.20;;;8.20;;
21233;SDS011;10774;42.178;26.578;2023-01-15T12:35:41;16.15;;;10.77;;
21233;SDS011;10774;42.178;26.578;2023-01-15T12:38:15;12.07;;;8.25;;
21233;SDS011;10774;42.178;26.578;2023-01-15T12:40:56;10.23;;;7.88;;
21233;SDS011;10774;42.178;26.578;2023-01-15T12:43:26;9.57;;;6.97;;
21233;SDS011;10774;42.178;26.578;2023-01-15T12:46:24;12.10;;;7.63;;
21233;SDS011;10774;42.178;26.578;2023-01-15T12:52:48;12.23;;;8.88;;
21233;SDS011;10774;42.178;26.578;2023-01-15T12:55:49;10.43;;;7.80;;
21233;SDS011;10774;42.178;26.578;2023-01-15T12:57:52;12.43;;;8.70;;
21233;SDS011;10774;42.178;26.578;2023-01-15T13:00:38;13.40;;;9.60;;
21233;SDS011;10774;42.178;26.578;2023-01-15T13:05:55;13.10;;;9.90;;
21233;SDS011;10774;42.178;26.578;2023-01-15T13:08:32;12.23;;;8.43;;
21233;SDS011;10774;42.178;26.578;2023-01-15T13:11:01;14.20;;;10.27;;
21233;SDS011;10774;42.178;26.578;2023-01-15T13:13:29;19.27;;;11.95;;
21233;SDS011;10774;42.178;26.578;2023-01-15T13:16:02;17.58;;;11.88;;
21233;SDS011;10774;42.178;26.578;2023-01-15T13:21:27;15.90;;;10.85;;
21233;SDS011;10774;42.178;26.578;2023-01-15T13:32:17;12.50;;;9.35;;
21233;SDS011;10774;42.178;26.578;2023-01-15T13:37:21;10.63;;;8.43;;
21233;SDS011;10774;42.178;26.578;2023-01-15T13:39:47;11.07;;;8.18;;
21233;SDS011;10774;42.178;26.578;2023-01-15T13:42:16;10.38;;;7.32;;
21233;SDS011;10774;42.178;26.578;2023-01-15T13:45:06;13.68;;;9.65;;
21233;SDS011;10774;42.178;26.578;2023-01-15T13:47:51;18.50;;;12.93;;
21233;SDS011;10774;42.178;26.578;2023-01-15T13:50:28;30.48;;;25.60;;
21233;SDS011;10774;42.178;26.578;2023-01-15T13:53:00;25.13;;;21.30;;
21233;SDS011;10774;42.178;26.578;2023-01-15T13:55:37;19.95;;;14.77;;
21233;SDS011;10774;42.178;26.578;2023-01-15T14:03:57;62.00;;;34.40;;
21233;SDS011;10774;42.178;26.578;2023-01-15T14:09:12;15.10;;;9.23;;
21233;SDS011;10774;42.178;26.578;2023-01-15T14:14:33;10.82;;;8.65;;
21233;SDS011;10774;42.178;26.578;2023-01-15T14:36:33;31.77;;;21.55;;
21233;SDS011;10774;42.178;26.578;2023-01-15T14:39:21;29.98;;;21.38;;
21233;SDS011;10774;42.178;26.578;2023-01-15T14:41:54;30.23;;;20.98;;
21233;SDS011;10774;42.178;26.578;2023-01-15T14:44:42;42.05;;;27.35;;
21233;SDS011;10774;42.178;26.578;2023-01-15T14:47:16;30.13;;;22.17;;
21233;SDS011;10774;42.178;26.578;2023-01-15T14:49:57;28.45;;;20.45;;
21233;SDS011;10774;42.178;26.578;2023-01-15T14:52:25;29.38;;;20.02;;
21233;SDS011;10774;42.178;26.578;2023-01-15T14:54:51;27.60;;;17.67;;
21233;SDS011;10774;42.178;26.578;2023-01-15T14:57:18;62.72;;;36.28;;
21233;SDS011;10774;42.178;26.578;2023-01-15T14:59:55;45.50;;;32.58;;
21233;SDS011;10774;42.178;26.578;2023-01-15T15:02:27;28.08;;;18.55;;
21233;SDS011;10774;42.178;26.578;2023-01-15T15:05:01;162.95;;;79.78;;
21233;SDS011;10774;42.178;26.578;2023-01-15T15:07:34;27.60;;;20.17;;
21233;SDS011;10774;42.178;26.578;2023-01-15T15:10:05;30.45;;;20.02;;
21233;SDS011;10774;42.178;26.578;2023-01-15T15:12:38;34.83;;;23.48;;
21233;SDS011;10774;42.178;26.578;2023-01-15T15:23:54;79.35;;;48.58;;
21233;SDS011;10774;42.178;26.578;2023-01-15T15:26:03;116.80;;;77.15;;
21233;SDS011;10774;42.178;26.578;2023-01-15T15:28:30;107.78;;;71.72;;
21233;SDS011;10774;42.178;26.578;2023-01-15T15:30:56;44.10;;;29.35;;
21233;SDS011;10774;42.178;26.578;2023-01-15T15:33:27;43.63;;;30.35;;
21233;SDS011;10774;42.178;26.578;2023-01-15T15:36:01;42.22;;;29.98;;
21233;SDS011;10774;42.178;26.578;2023-01-15T15:38:27;63.65;;;46.42;;
21233;SDS011;10774;42.178;26.578;2023-01-15T15:40:57;31.48;;;23.30;;
21233;SDS011;10774;42.178;26.578;2023-01-15T15:43:27;27.58;;;20.27;;
21233;SDS011;10774;42.178;26.578;2023-01-15T15:46:23;20.88;;;14.55;;
21233;SDS011;10774;42.178;26.578;2023-01-15T15:49:10;19.83;;;13.90;;
21233;SDS011;10774;42.178;26.578;2023-01-15T15:51:49;20.58;;;13.10;;
21233;SDS011;10774;42.178;26.578;2023-01-15T15:56:47;28.77;;;21.02;;
21233;SDS011;10774;42.178;26.578;2023-01-15T15:59:15;44.17;;;30.75;;
21233;SDS011;10774;42.178;26.578;2023-01-15T16:04:49;54.60;;;37.45;;
21233;SDS011;10774;42.178;26.578;2023-01-15T16:07:24;47.15;;;33.15;;
21233;SDS011;10774;42.178;26.578;2023-01-15T16:09:52;46.55;;;30.52;;
21233;SDS011;10774;42.178;26.578;2023-01-15T16:12:22;44.15;;;29.77;;
21233;SDS011;10774;42.178;26.578;2023-01-15T16:14:49;42.28;;;29.40;;
21233;SDS011;10774;42.178;26.578;2023-01-15T16:17:15;52.35;;;35.13;;
21233;SDS011;10774;42.178;26.578;2023-01-15T16:19:41;53.42;;;35.80;;
21233;SDS011;10774;42.178;26.578;2023-01-15T16:22:09;52.55;;;33.78;;
21233;SDS011;10774;42.178;26.578;2023-01-15T16:24:39;52.30;;;37.13;;
21233;SDS011;10774;42.178;26.578;2023-01-15T16:27:06;54.70;;;38.13;;
21233;SDS011;10774;42.178;26.578;2023-01-15T16:29:44;81.15;;;58.53;;
21233;SDS011;10774;42.178;26.578;2023-01-15T16:32:16;65.22;;;45.78;;
21233;SDS011;10774;42.178;26.578;2023-01-15T16:34:47;67.43;;;42.78;;
21233;SDS011;10774;42.178;26.578;2023-01-15T16:37:20;79.95;;;46.72;;
21233;SDS011;10774;42.178;26.578;2023-01-15T16:39:54;129.95;;;60.58;;
21233;SDS011;10774;42.178;26.578;2023-01-15T16:45:20;182.02;;;102.90;;
21233;SDS011;10774;42.178;26.578;2023-01-15T16:50:35;86.72;;;52.70;;
21233;SDS011;10774;42.178;26.578;2023-01-15T16:53:04;75.57;;;51.75;;
21233;SDS011;10774;42.178;26.578;2023-01-15T16:55:41;102.72;;;70.40;;